createdAt,value
2023-03-10T00:00:40.315Z,11.73
2023-03-10T00:03:07.841Z,11.25
2023-03-10T00:05:35.390Z,11.07
2023-03-10T00:08:02.704Z,9.65
2023-03-10T00:10:30.031Z,9.68
2023-03-10T00:12:57.571Z,11.70
2023-03-10T00:15:24.842Z,12.00
2023-03-10T00:17:55.535Z,12.18
2023-03-10T00:22:49.909Z,12.65
2023-03-10T00:25:17.082Z,10.73
2023-03-10T00:27:44.309Z,11.27
2023-03-10T00:30:11.718Z,11.60
2023-03-10T00:32:38.985Z,12.00
2023-03-10T00:35:07.239Z,10.98
2023-03-10T00:37:36.627Z,9.98
2023-03-10T00:40:04.922Z,5.78
2023-03-10T00:42:32.053Z,11.50
2023-03-10T00:44:59.318Z,9.90
2023-03-10T00:47:26.504Z,10.40
2023-03-10T00:49:54.394Z,13.20
2023-03-10T00:52:21.553Z,10.25
2023-03-10T00:54:48.673Z,11.35
2023-03-10T00:57:15.841Z,11.70
2023-03-10T00:59:50.304Z,10.90
2023-03-10T01:02:18.354Z,10.30
2023-03-10T01:04:45.775Z,12.45
2023-03-10T01:07:12.915Z,10.77
2023-03-10T01:09:40.100Z,17.25
2023-03-10T01:12:07.457Z,10.02
2023-03-10T01:14:34.668Z,12.57
2023-03-10T01:17:01.852Z,10.07
2023-03-10T01:19:29.090Z,11.70
2023-03-10T01:21:56.315Z,11.13
2023-03-10T01:24:23.550Z,12.90
2023-03-10T01:26:50.823Z,12.93
2023-03-10T01:29:18.080Z,14.20
2023-03-10T01:31:45.729Z,13.95
2023-03-10T01:34:13.030Z,11.27
2023-03-10T01:36:41.984Z,11.75
2023-03-10T01:39:09.219Z,12.50
2023-03-10T01:41:40.390Z,14.02
2023-03-10T01:44:13.777Z,12.25
2023-03-10T01:46:41.125Z,14.32
2023-03-10T01:49:17.379Z,14.45
2023-03-10T01:51:46.615Z,12.80
2023-03-10T01:54:16.638Z,12.45
2023-03-10T01:56:44.014Z,13.18
2023-03-10T01:59:11.746Z,14.30
2023-03-10T02:01:39.197Z,11.70
2023-03-10T02:04:09.690Z,12.93
2023-03-10T02:06:38.190Z,11.68
2023-03-10T02:09:05.744Z,12.18
2023-03-10T02:11:34.266Z,13.32
2023-03-10T02:14:06.318Z,12.98
2023-03-10T02:16:34.361Z,14.07
2023-03-10T02:19:01.802Z,13.57
2023-03-10T02:21:42.973Z,12.18
2023-03-10T02:24:27.461Z,12.32
2023-03-10T02:27:03.449Z,11.98
2023-03-10T02:29:52.567Z,13.90
2023-03-10T02:32:24.424Z,13.45
2023-03-10T02:34:51.652Z,12.40
2023-03-10T02:37:23.480Z,10.95
2023-03-10T02:39:51.140Z,14.43
2023-03-10T02:42:18.742Z,10.77
2023-03-10T02:44:46.706Z,10.43
2023-03-10T02:47:14.292Z,12.00
2023-03-10T02:49:41.800Z,12.60
2023-03-10T02:52:13.045Z,11.43
2023-03-10T02:54:40.329Z,12.73
2023-03-10T02:57:07.499Z,12.77
2023-03-10T02:59:34.657Z,10.82
2023-03-10T03:02:01.877Z,13.52
2023-03-10T03:04:29.112Z,11.55
2023-03-10T03:06:56.264Z,11.60
2023-03-10T03:09:23.480Z,12.43
2023-03-10T03:11:51.207Z,12.93
2023-03-10T03:14:19.603Z,12.63
2023-03-10T03:16:48.632Z,13.90
2023-03-10T03:19:15.987Z,11.52
2023-03-10T03:21:49.745Z,13.35
2023-03-10T03:24:18.592Z,11.68
2023-03-10T03:26:45.795Z,11.98
2023-03-10T03:29:17.626Z,11.93
2023-03-10T03:31:45.288Z,10.98
2023-03-10T03:34:17.520Z,10.63
2023-03-10T03:36:46.228Z,12.57
2023-03-10T03:39:17.468Z,12.80
2023-03-10T03:41:48.989Z,10.38
2023-03-10T03:44:16.231Z,11.50
2023-03-10T03:46:43.594Z,13.73
2023-03-10T03:49:11.293Z,11.13
2023-03-10T03:51:38.486Z,11.23
2023-03-10T03:54:06.592Z,15.48
2023-03-10T03:56:36.153Z,11.75
2023-03-10T03:59:03.283Z,14.15
2023-03-10T04:01:30.454Z,13.45
2023-03-10T04:03:59.414Z,10.65
2023-03-10T04:06:26.793Z,11.57
2023-03-10T04:08:54.762Z,9.35
2023-03-10T04:11:24.278Z,10.20
2023-03-10T04:13:52.148Z,10.27
2023-03-10T04:16:20.384Z,11.73
2023-03-10T04:18:47.702Z,12.75
2023-03-10T04:21:17.601Z,11.90
2023-03-10T04:23:46.635Z,12.50
2023-03-10T04:26:17.373Z,12.20
2023-03-10T04:28:45.234Z,12.68
2023-03-10T04:31:16.233Z,12.27
2023-03-10T04:33:45.550Z,15.65
2023-03-10T04:36:13.884Z,12.63
2023-03-10T04:38:41.932Z,12.75
2023-03-10T04:41:09.565Z,14.88
2023-03-10T04:43:42.948Z,11.85
2023-03-10T04:46:11.493Z,13.70
2023-03-10T04:48:39.148Z,13.75
2023-03-10T04:51:08.182Z,10.93
2023-03-10T04:53:40.541Z,11.70
2023-03-10T04:56:08.923Z,12.13
2023-03-10T04:58:37.918Z,12.38
2023-03-10T05:01:10.053Z,14.65
2023-03-10T05:03:40.746Z,11.68
2023-03-10T05:06:15.444Z,10.70
2023-03-10T05:08:45.070Z,11.77
2023-03-10T05:11:12.933Z,12.57
2023-03-10T05:13:40.515Z,11.65
2023-03-10T05:16:15.806Z,14.90
2023-03-10T05:18:42.964Z,12.40
2023-03-10T05:21:10.814Z,9.63
2023-03-10T05:23:38.336Z,12.40
2023-03-10T05:26:07.172Z,12.02
2023-03-10T05:28:34.559Z,11.65
2023-03-10T05:31:02.045Z,10.88
2023-03-10T05:33:31.465Z,9.95
2023-03-10T05:36:00.299Z,8.85
2023-03-10T05:38:27.692Z,10.63
2023-03-10T05:40:55.132Z,9.77
2023-03-10T05:43:22.414Z,11.55
2023-03-10T05:45:57.151Z,10.07
2023-03-10T05:48:25.331Z,11.48
2023-03-10T05:50:59.294Z,11.63
2023-03-10T05:53:27.142Z,12.30
2023-03-10T05:55:55.134Z,8.95
2023-03-10T05:58:22.644Z,10.80
2023-03-10T06:00:49.956Z,11.48
2023-03-10T06:03:17.853Z,9.23
2023-03-10T06:05:45.122Z,11.43
2023-03-10T06:08:12.740Z,9.07
2023-03-10T06:10:40.208Z,10.70
2023-03-10T06:13:07.337Z,10.63
2023-03-10T06:15:34.777Z,9.95
2023-03-10T06:18:01.979Z,10.13
2023-03-10T06:20:29.128Z,11.63
2023-03-10T06:22:56.309Z,9.93
2023-03-10T06:25:23.460Z,7.78
2023-03-10T06:27:50.624Z,9.70
2023-03-10T06:30:18.688Z,9.90
2023-03-10T06:32:46.148Z,10.43
2023-03-10T06:35:14.345Z,9.95
2023-03-10T06:37:41.519Z,9.40
2023-03-10T06:40:12.746Z,9.90
2023-03-10T06:42:43.889Z,17.13
2023-03-10T06:45:14.307Z,9.18
2023-03-10T06:47:41.509Z,6.93
2023-03-10T06:50:09.673Z,10.52
2023-03-10T06:52:36.838Z,7.88
2023-03-10T06:55:04.645Z,10.77
2023-03-10T06:57:31.822Z,9.80
2023-03-10T06:59:59.040Z,10.27
2023-03-10T07:02:26.190Z,10.60
2023-03-10T07:04:53.441Z,10.63
2023-03-10T07:07:20.655Z,8.60
2023-03-10T07:09:47.937Z,8.82
2023-03-10T07:12:15.151Z,11.20
2023-03-10T07:14:42.360Z,8.93
2023-03-10T07:17:09.613Z,9.63
2023-03-10T07:19:37.756Z,10.60
2023-03-10T07:22:05.016Z,9.93
2023-03-10T07:24:32.260Z,9.15
2023-03-10T07:27:00.142Z,8.30
2023-03-10T07:29:27.507Z,7.50
2023-03-10T07:31:54.673Z,8.13
2023-03-10T07:34:21.805Z,7.43
2023-03-10T07:36:48.955Z,8.38
2023-03-10T07:39:16.193Z,10.20
2023-03-10T07:41:43.361Z,8.98
2023-03-10T07:44:10.622Z,10.20
2023-03-10T07:46:37.883Z,8.27
2023-03-10T07:49:05.171Z,14.13
2023-03-10T07:51:32.686Z,7.93
2023-03-10T07:53:59.986Z,10.15
2023-03-10T07:56:27.144Z,12.35
2023-03-10T07:58:54.360Z,8.65
2023-03-10T08:01:22.347Z,11.38
2023-03-10T08:03:50.425Z,11.20
2023-03-10T08:06:22.102Z,8.93
2023-03-10T08:08:49.387Z,12.38
2023-03-10T08:11:16.860Z,8.40
2023-03-10T08:13:46.064Z,7.10
2023-03-10T08:16:13.416Z,12.20
2023-03-10T08:18:40.646Z,8.93
2023-03-10T08:21:08.280Z,10.43
2023-03-10T08:23:36.865Z,11.43
2023-03-10T08:26:05.692Z,9.73
2023-03-10T08:28:35.057Z,10.60
2023-03-10T08:31:07.946Z,10.60
2023-03-10T08:33:35.194Z,10.30
2023-03-10T08:36:10.167Z,9.80
2023-03-10T08:38:37.442Z,10.45
2023-03-10T08:41:11.958Z,11.15
2023-03-10T08:43:39.646Z,9.05
2023-03-10T08:46:08.698Z,10.35
2023-03-10T08:48:36.488Z,8.27
2023-03-10T08:51:04.170Z,8.82
2023-03-10T08:53:31.393Z,9.25
2023-03-10T08:55:59.376Z,8.25
2023-03-10T08:58:26.713Z,8.43
2023-03-10T09:00:54.065Z,8.18
2023-03-10T09:03:22.329Z,7.15
2023-03-10T09:05:49.578Z,11.73
2023-03-10T09:08:17.133Z,6.93
2023-03-10T09:10:45.201Z,8.68
2023-03-10T09:13:14.328Z,6.88
2023-03-10T09:15:42.370Z,9.45
2023-03-10T09:18:10.344Z,8.77
2023-03-10T09:20:39.380Z,8.32
2023-03-10T09:23:07.322Z,8.32
2023-03-10T09:25:34.806Z,7.60
2023-03-10T09:28:01.925Z,8.23
2023-03-10T09:30:29.126Z,6.80
2023-03-10T09:32:56.845Z,7.55
2023-03-10T09:35:24.039Z,5.75
2023-03-10T09:37:51.224Z,5.90
2023-03-10T09:40:19.724Z,6.85
2023-03-10T09:42:48.250Z,8.05
2023-03-10T09:45:27.383Z,7.70
2023-03-10T09:47:57.673Z,6.85
2023-03-10T09:50:30.755Z,5.88
2023-03-10T09:53:03.959Z,7.28
2023-03-10T09:55:36.602Z,5.07
2023-03-10T09:58:04.291Z,4.30
2023-03-10T10:00:38.583Z,7.53
2023-03-10T10:03:14.922Z,8.27
2023-03-10T10:05:42.928Z,5.22
2023-03-10T10:08:27.285Z,7.25
2023-03-10T10:10:57.451Z,5.70
2023-03-10T10:13:26.782Z,5.18
2023-03-10T10:16:18.384Z,5.50
2023-03-10T10:18:51.938Z,4.57
2023-03-10T10:21:42.691Z,4.28
2023-03-10T10:24:10.309Z,5.28
2023-03-10T10:26:37.504Z,4.60
2023-03-10T10:29:15.436Z,6.75
2023-03-10T10:31:42.629Z,6.13
2023-03-10T10:34:23.324Z,6.20
2023-03-10T10:36:55.271Z,6.75
2023-03-10T10:39:28.221Z,4.05
2023-03-10T10:41:55.603Z,5.57
2023-03-10T10:44:22.767Z,4.93
2023-03-10T10:46:54.261Z,4.15
2023-03-10T10:49:25.906Z,5.88
2023-03-10T10:51:58.134Z,5.47
2023-03-10T10:54:28.461Z,3.00
2023-03-10T10:59:36.386Z,3.33
2023-03-10T11:02:04.841Z,3.42
2023-03-10T11:04:43.087Z,5.95
2023-03-10T11:07:12.572Z,4.40
2023-03-10T11:09:39.895Z,6.22
2023-03-10T11:12:07.127Z,4.05
2023-03-10T11:14:46.561Z,4.05
2023-03-10T11:17:30.361Z,4.20
2023-03-10T11:20:00.778Z,4.90
2023-03-10T11:22:27.933Z,5.57
2023-03-10T11:25:04.430Z,6.28
2023-03-10T11:27:44.841Z,6.05
2023-03-10T11:30:26.571Z,7.82
2023-03-10T11:33:06.113Z,6.22
2023-03-10T11:35:37.166Z,8.07
2023-03-10T11:38:19.714Z,8.70
2023-03-10T11:40:56.345Z,8.55
2023-03-10T11:43:44.956Z,7.78
2023-03-10T11:46:39.427Z,4.78
2023-03-10T11:49:07.851Z,6.10
2023-03-10T11:51:55.281Z,7.95
2023-03-10T11:54:29.168Z,6.15
2023-03-10T11:56:56.922Z,6.60
2023-03-10T11:59:25.431Z,8.85
2023-03-10T12:02:14.014Z,8.88
2023-03-10T12:04:50.534Z,8.02
2023-03-10T12:07:22.543Z,7.72
2023-03-10T12:09:57.583Z,8.57
2023-03-10T12:12:38.891Z,8.63
2023-03-10T12:15:24.925Z,8.82
2023-03-10T12:17:53.211Z,10.93
2023-03-10T12:20:20.445Z,10.55
2023-03-10T12:22:51.490Z,10.65
2023-03-10T12:25:32.827Z,10.48
2023-03-10T12:28:18.452Z,10.55
2023-03-10T12:30:50.906Z,9.95
2023-03-10T12:33:42.482Z,10.07
2023-03-10T12:36:34.037Z,9.43
2023-03-10T12:39:02.005Z,8.95
2023-03-10T12:41:29.204Z,10.77
2023-03-10T12:44:00.349Z,8.88
2023-03-10T12:46:41.832Z,9.55
2023-03-10T12:49:21.234Z,8.90
2023-03-10T12:51:54.293Z,8.25
2023-03-10T12:54:21.530Z,8.70
2023-03-10T12:56:58.133Z,11.35
2023-03-10T12:59:36.249Z,9.55
2023-03-10T13:02:04.863Z,9.57
2023-03-10T13:04:32.138Z,9.35
2023-03-10T13:07:04.112Z,9.82
2023-03-10T13:09:38.444Z,9.00
2023-03-10T13:12:09.384Z,7.53
2023-03-10T13:14:41.019Z,10.57
2023-03-10T13:17:09.721Z,10.18
2023-03-10T13:19:38.486Z,8.18
2023-03-10T13:22:05.812Z,9.10
2023-03-10T13:24:39.178Z,8.85
2023-03-10T13:27:06.669Z,11.57
2023-03-10T13:29:34.416Z,10.30
2023-03-10T13:32:01.735Z,7.57
2023-03-10T13:34:30.032Z,7.63
2023-03-10T13:37:04.955Z,11.75
2023-03-10T13:39:32.326Z,11.48
2023-03-10T13:42:00.378Z,11.02
2023-03-10T13:44:29.322Z,12.90
2023-03-10T13:46:58.635Z,10.13
2023-03-10T13:49:28.237Z,11.77
2023-03-10T13:51:56.913Z,10.48
2023-03-10T13:54:26.001Z,13.85
2023-03-10T13:56:54.603Z,11.00
2023-03-10T13:59:26.956Z,12.70
2023-03-10T14:01:56.790Z,12.15
2023-03-10T14:04:43.738Z,10.10
2023-03-10T14:07:13.751Z,11.70
2023-03-10T14:09:41.402Z,14.15
2023-03-10T14:12:10.473Z,13.05
2023-03-10T14:14:44.709Z,12.75
2023-03-10T14:17:30.927Z,10.90
2023-03-10T14:19:58.439Z,12.77
2023-03-10T14:22:30.538Z,12.30
2023-03-10T14:24:58.713Z,13.15
2023-03-10T14:27:26.488Z,14.85
2023-03-10T14:30:00.437Z,13.95
2023-03-10T14:32:27.709Z,13.68
2023-03-10T14:34:55.485Z,16.27
2023-03-10T14:37:23.850Z,15.02
2023-03-10T14:39:51.056Z,12.82
2023-03-10T14:42:23.837Z,10.45
2023-03-10T14:44:51.637Z,7.97
2023-03-10T14:47:19.366Z,9.15
2023-03-10T14:49:46.640Z,9.45
2023-03-10T14:52:17.640Z,4.28
2023-03-10T14:54:45.409Z,7.78
2023-03-10T14:57:13.768Z,7.00
2023-03-10T14:59:40.978Z,11.65
2023-03-10T15:02:12.356Z,7.18
2023-03-10T15:04:39.598Z,5.93
2023-03-10T15:07:06.806Z,7.20
2023-03-10T15:09:35.290Z,6.13
2023-03-10T15:12:02.557Z,8.40
2023-03-10T15:14:30.497Z,8.65
2023-03-10T15:16:57.679Z,8.93
2023-03-10T15:19:26.093Z,9.75
2023-03-10T15:21:53.368Z,7.40
2023-03-10T15:24:20.863Z,8.30
2023-03-10T15:26:48.304Z,5.57
2023-03-10T15:29:16.797Z,9.90
2023-03-10T15:31:44.251Z,8.63
2023-03-10T15:34:12.983Z,7.15
2023-03-10T15:36:40.299Z,9.98
2023-03-10T15:39:07.876Z,7.60
2023-03-10T15:41:39.238Z,8.32
2023-03-10T15:44:07.150Z,8.55
2023-03-10T15:46:34.446Z,6.25
2023-03-10T15:49:03.457Z,8.60
2023-03-10T15:51:30.930Z,9.82
2023-03-10T15:53:58.272Z,10.25
2023-03-10T15:56:26.263Z,7.07
2023-03-10T15:58:53.964Z,7.55
2023-03-10T16:01:21.336Z,7.50
2023-03-10T16:03:49.018Z,7.45
2023-03-10T16:06:16.285Z,7.25
2023-03-10T16:08:45.343Z,6.10
2023-03-10T16:11:17.401Z,8.77
2023-03-10T16:13:46.663Z,6.50
2023-03-10T16:16:14.443Z,6.63
2023-03-10T16:18:41.706Z,6.70
2023-03-10T16:21:09.001Z,5.38
2023-03-10T16:23:36.277Z,6.93
2023-03-10T16:26:09.825Z,7.82
2023-03-10T16:28:37.964Z,6.82
2023-03-10T16:31:05.705Z,3.70
2023-03-10T16:33:32.836Z,3.42
2023-03-10T16:36:00.438Z,2.55
2023-03-10T16:38:27.810Z,3.63
2023-03-10T16:40:55.174Z,6.30
2023-03-10T16:43:22.798Z,0.98
2023-03-10T16:45:51.088Z,3.85
2023-03-10T16:48:21.719Z,2.28
2023-03-10T16:50:49.992Z,3.83
2023-03-10T16:53:17.857Z,2.72
2023-03-10T16:55:45.054Z,1.35
2023-03-10T16:58:12.242Z,4.03
2023-03-10T17:00:40.866Z,4.22
2023-03-10T17:03:08.318Z,4.32
2023-03-10T17:05:35.497Z,6.03
2023-03-10T17:08:06.059Z,2.65
2023-03-10T17:13:00.689Z,2.85
2023-03-10T17:15:30.153Z,5.20
2023-03-10T17:17:57.390Z,3.47
2023-03-10T17:20:26.033Z,2.80
2023-03-10T17:22:53.249Z,3.47
2023-03-10T17:25:20.492Z,3.72
2023-03-10T17:27:48.160Z,5.03
2023-03-10T17:30:17.787Z,4.03
2023-03-10T17:32:45.191Z,1.92
2023-03-10T17:35:12.321Z,2.97
2023-03-10T17:37:39.474Z,5.43
2023-03-10T17:40:09.271Z,12.45
2023-03-10T17:42:36.533Z,16.90
2023-03-10T17:45:06.845Z,17.58
2023-03-10T17:47:34.189Z,11.98
2023-03-10T17:50:02.223Z,12.30
2023-03-10T17:52:29.760Z,12.32
2023-03-10T17:54:56.938Z,8.38
2023-03-10T17:57:24.287Z,9.05
2023-03-10T17:59:51.905Z,10.70
2023-03-10T18:02:19.201Z,9.10
2023-03-10T18:04:46.743Z,7.35
2023-03-10T18:07:13.982Z,5.72
2023-03-10T18:09:41.121Z,4.03
2023-03-10T18:12:08.277Z,8.43
2023-03-10T18:14:35.563Z,5.80
2023-03-10T18:17:03.136Z,7.93
2023-03-10T18:19:30.466Z,5.90
2023-03-10T18:21:59.665Z,4.95
2023-03-10T18:24:26.800Z,5.53
2023-03-10T18:26:53.946Z,4.70
2023-03-10T18:29:21.134Z,4.45
2023-03-10T18:31:48.340Z,6.72
2023-03-10T18:34:15.714Z,5.97
2023-03-10T18:36:42.934Z,4.90
2023-03-10T18:39:11.132Z,5.55
2023-03-10T18:41:38.270Z,6.70
2023-03-10T18:44:05.650Z,6.75
2023-03-10T18:46:32.862Z,8.18
2023-03-10T18:49:00.071Z,5.30
2023-03-10T18:51:28.452Z,3.63
2023-03-10T18:53:56.103Z,6.50
2023-03-10T18:56:25.637Z,8.50
2023-03-10T18:58:52.948Z,8.55
2023-03-10T19:01:20.306Z,7.72
2023-03-10T19:03:47.499Z,6.90
2023-03-10T19:06:14.643Z,8.40
2023-03-10T19:08:41.846Z,10.77
2023-03-10T19:11:09.217Z,9.75
2023-03-10T19:13:40.362Z,5.15
2023-03-10T19:16:08.462Z,13.65
2023-03-10T19:18:35.896Z,4.80
2023-03-10T19:21:03.593Z,9.63
2023-03-10T19:23:30.804Z,11.50
2023-03-10T19:25:58.193Z,9.25
2023-03-10T19:28:25.490Z,14.30
2023-03-10T19:30:52.748Z,8.95
2023-03-10T19:33:19.842Z,11.07
2023-03-10T19:35:47.054Z,6.72
2023-03-10T19:38:14.261Z,10.32
2023-03-10T19:40:41.385Z,10.25
2023-03-10T19:43:08.510Z,8.02
2023-03-10T19:45:35.642Z,9.73
2023-03-10T19:48:02.801Z,14.60
2023-03-10T19:50:29.919Z,5.75
2023-03-10T19:52:57.176Z,12.25
2023-03-10T19:55:26.439Z,10.65
2023-03-10T19:57:55.862Z,12.63
2023-03-10T20:00:25.519Z,13.60
2023-03-10T20:02:53.820Z,11.23
2023-03-10T20:05:21.315Z,5.47
2023-03-10T20:07:48.952Z,11.82
2023-03-10T20:10:17.219Z,12.80
2023-03-10T20:12:44.568Z,15.95
2023-03-10T20:15:11.945Z,11.73
2023-03-10T20:17:39.174Z,9.45
2023-03-10T20:20:10.642Z,13.82
2023-03-10T20:22:39.412Z,10.05
2023-03-10T20:25:08.268Z,15.63
2023-03-10T20:27:35.397Z,17.33
2023-03-10T20:30:08.687Z,17.83
2023-03-10T20:32:36.053Z,10.25
2023-03-10T20:35:05.103Z,13.23
2023-03-10T20:37:33.769Z,10.82
2023-03-10T20:40:00.953Z,13.13
2023-03-10T20:42:28.506Z,10.73
2023-03-10T20:44:55.941Z,10.73
2023-03-10T20:47:23.230Z,12.60
2023-03-10T20:49:50.351Z,16.80
2023-03-10T20:52:17.738Z,6.82
2023-03-10T20:54:44.875Z,8.23
2023-03-10T20:57:12.216Z,9.68
2023-03-10T20:59:39.516Z,10.10
2023-03-10T21:02:06.713Z,11.05
2023-03-10T21:04:34.281Z,7.95
2023-03-10T21:07:01.580Z,8.25
2023-03-10T21:09:28.947Z,8.57
2023-03-10T21:11:56.030Z,12.95
2023-03-10T21:14:23.060Z,12.60
2023-03-10T21:16:50.654Z,13.55
2023-03-10T21:19:18.352Z,9.63
2023-03-10T21:21:45.649Z,16.83
2023-03-10T21:24:12.379Z,9.45
2023-03-10T21:26:39.809Z,10.55
2023-03-10T21:29:07.169Z,16.52
2023-03-10T21:31:34.510Z,10.00
2023-03-10T21:34:04.184Z,16.42
2023-03-10T21:36:31.894Z,12.10
2023-03-10T21:38:59.242Z,12.75
2023-03-10T21:41:27.889Z,13.02
2023-03-10T21:43:55.767Z,9.65
2023-03-10T21:46:23.416Z,9.13
2023-03-10T21:48:52.233Z,8.95
2023-03-10T21:51:21.546Z,10.63
2023-03-10T21:53:48.724Z,11.48
2023-03-10T21:56:17.730Z,11.93
2023-03-10T21:58:45.684Z,10.90
2023-03-10T22:01:13.815Z,8.75
2023-03-10T22:03:41.538Z,11.05
2023-03-10T22:06:08.726Z,14.60
2023-03-10T22:08:36.491Z,19.52
2023-03-10T22:11:06.418Z,31.15
2023-03-10T22:13:34.174Z,24.13
2023-03-10T22:16:01.786Z,17.83
2023-03-10T22:18:28.940Z,11.88
2023-03-10T22:20:56.158Z,12.45
2023-03-10T22:23:23.565Z,12.55
2023-03-10T22:25:50.720Z,12.73
2023-03-10T22:28:17.955Z,8.82
2023-03-10T22:30:45.280Z,13.02
2023-03-10T22:33:12.435Z,15.88
2023-03-10T22:35:39.857Z,14.02
2023-03-10T22:38:06.995Z,11.27
2023-03-10T22:40:34.387Z,14.35
2023-03-10T22:43:01.647Z,18.17
2023-03-10T22:45:29.995Z,17.75
2023-03-10T22:48:01.647Z,16.02
2023-03-10T22:50:32.501Z,17.50
2023-03-10T22:55:27.271Z,10.55
2023-03-10T22:57:56.507Z,9.95
2023-03-10T23:00:23.874Z,5.97
2023-03-10T23:02:52.397Z,15.52
2023-03-10T23:05:19.777Z,4.53
2023-03-10T23:07:47.497Z,8.70
2023-03-10T23:10:16.613Z,10.23
2023-03-10T23:12:44.436Z,9.43
2023-03-10T23:15:24.036Z,9.82
2023-03-10T23:17:52.646Z,12.55
2023-03-10T23:20:20.342Z,9.20
2023-03-10T23:22:48.094Z,6.20
2023-03-10T23:25:23.879Z,5.00
2023-03-10T23:27:51.122Z,7.38
2023-03-10T23:30:18.820Z,7.00
2023-03-10T23:32:47.351Z,9.18
2023-03-10T23:35:25.830Z,6.72
2023-03-10T23:37:53.330Z,7.25
2023-03-10T23:40:21.526Z,12.07
2023-03-10T23:42:48.945Z,10.70
2023-03-10T23:45:20.153Z,7.90
2023-03-10T23:47:47.438Z,9.48
2023-03-10T23:50:17.566Z,6.88
2023-03-10T23:52:45.064Z,11.02
2023-03-10T23:55:16.551Z,7.53
2023-03-10T23:57:43.957Z,14.15
